Time;durP1;ratioP1;P1;durP2;ratioP2;P2;SDS_P1;SDS_P2;PMS_P1;PMS_P2;Temp;Humidity;BMP_temperature;BMP_pressure;BME280_temperature;BME280_humidity;BME280_pressure;Samples;Min_cycle;Max_cycle;Signal;HPM_P1;HPM_P2
2022/09/10 00:01:54;;;;;;;13.30;8.60;;;21.90;99.90;;;22.38;66.02;94874.25;6176193;23;20406;-56
2022/09/10 00:04:21;;;;;;;14.20;8.97;;;21.80;99.90;;;22.37;65.65;94876.09;6175545;23;20425;-56
2022/09/10 00:06:48;;;;;;;12.30;7.90;;;21.90;99.90;;;22.36;65.39;94884.38;6175882;23;20414;-53
2022/09/10 00:09:16;;;;;;;13.73;8.83;;;21.90;99.90;;;22.37;65.19;94888.69;6176139;23;20509;-54
2022/09/10 00:11:44;;;;;;;17.33;8.60;;;21.90;99.90;;;22.37;65.76;94888.69;6176269;23;20445;-56
2022/09/10 00:14:17;;;;;;;15.10;8.80;;;21.80;99.90;;;22.39;65.82;94891.97;6175647;23;20501;-55
2022/09/10 00:16:45;;;;;;;13.27;8.10;;;21.90;99.90;;;22.41;66.01;94892.56;6172131;23;20473;-56
2022/09/10 00:19:13;;;;;;;17.70;8.00;;;21.90;99.90;;;22.43;65.33;94893.16;6175277;23;20777;-56
2022/09/10 00:21:40;;;;;;;22.90;8.80;;;21.90;99.90;;;22.42;65.28;94899.59;6175850;23;20410;-55
2022/09/10 00:24:08;;;;;;;11.50;8.30;;;21.90;99.90;;;22.41;65.21;94902.47;6175314;23;20425;-56
2022/09/10 00:26:38;;;;;;;29.27;8.00;;;21.90;99.90;;;22.41;65.42;94900.63;6176122;23;20990;-55
2022/09/10 00:29:05;;;;;;;10.33;7.90;;;21.90;99.90;;;22.41;65.57;94895.25;6176051;23;20428;-54
2022/09/10 00:31:33;;;;;;;14.57;8.27;;;21.90;99.90;;;22.43;65.38;94897.72;6176334;23;20453;-55
2022/09/10 00:34:02;;;;;;;14.83;7.83;;;21.90;99.90;;;22.45;65.14;94899.16;6175165;23;20434;-55
2022/09/10 00:36:32;;;;;;;16.90;7.87;;;21.90;99.90;;;22.47;65.25;94898.94;6175821;23;20467;-54
2022/09/10 00:39:02;;;;;;;10.97;8.07;;;21.90;99.90;;;22.47;65.29;94894.41;6175803;23;20809;-56
2022/09/10 00:41:29;;;;;;;11.93;7.40;;;22.00;99.90;;;22.50;65.98;94902.03;6175657;23;20802;-56
2022/09/10 00:43:57;;;;;;;12.67;8.23;;;22.00;99.90;;;22.51;65.44;94887.59;6176015;23;20425;-55
2022/09/10 00:46:29;;;;;;;13.30;9.40;;;22.00;99.90;;;22.52;65.47;94881.16;6175547;23;20631;-55
2022/09/10 00:48:58;;;;;;;13.63;8.03;;;22.00;99.90;;;22.54;65.66;94889.84;6175113;23;20496;-55
2022/09/10 00:51:28;;;;;;;35.47;9.43;;;22.00;99.90;;;22.52;65.69;94897.25;6176044;23;23132;-55
2022/09/10 00:53:56;;;;;;;12.00;7.60;;;22.00;99.90;;;22.52;65.38;94883.84;6175066;23;20959;-55
2022/09/10 00:56:23;;;;;;;13.60;9.43;;;22.00;99.90;;;22.53;65.47;94892.75;6176083;23;20425;-55
2022/09/10 00:58:51;;;;;;;16.17;8.63;;;22.00;99.90;;;22.51;65.91;94890.28;6175724;23;20448;-53
2022/09/10 01:01:18;;;;;;;25.97;9.07;;;22.00;99.90;;;22.52;65.46;94875.81;6175533;23;20420;-56
2022/09/10 01:03:45;;;;;;;11.90;9.27;;;22.00;99.90;;;22.53;65.42;94879.34;6175080;23;20930;-56
2022/09/10 01:06:12;;;;;;;10.83;8.90;;;22.00;99.90;;;22.53;65.28;94882.81;6175958;23;20491;-55
2022/09/10 01:08:41;;;;;;;12.30;7.70;;;22.00;99.90;;;22.54;65.36;94873.75;6175539;23;20422;-58
2022/09/10 01:11:37;;;;;;;13.30;8.30;;;22.00;99.90;;;22.51;65.65;94874.19;6175274;23;20467;-53
2022/09/10 01:14:42;;;;;;;11.13;8.70;;;22.00;99.90;;;22.48;65.70;94879.97;6166464;23;20433;-55
2022/09/10 01:17:17;;;;;;;16.23;7.77;;;22.00;99.90;;;22.46;65.62;94868.63;6175242;23;20398;-55
2022/09/10 01:20:27;;;;;;;7.33;6.40;;;22.00;99.90;;;22.45;66.05;94861.63;6176759;23;20421;-55
2022/09/10 01:23:17;;;;;;;24.80;7.60;;;22.00;99.90;;;22.45;65.28;94876.88;6175181;23;20412;-52
2022/09/10 01:25:49;;;;;;;16.13;6.83;;;21.90;99.90;;;22.43;65.41;94866.38;6175892;23;20398;-55
2022/09/10 01:28:19;;;;;;;17.93;7.40;;;21.90;99.90;;;22.43;65.80;94852.16;6175722;23;20477;-53
2022/09/10 01:30:50;;;;;;;17.57;8.23;;;21.90;99.90;;;22.44;65.04;94845.78;6175304;23;20467;-56
2022/09/10 01:33:21;;;;;;;8.57;7.13;;;21.90;99.90;;;22.44;65.98;94849.25;6176509;23;20917;-55
2022/09/10 01:35:51;;;;;;;10.50;7.67;;;21.90;99.90;;;22.45;65.05;94858.97;6176653;23;20417;-56
2022/09/10 01:38:23;;;;;;;14.17;8.73;;;21.90;99.90;;;22.45;65.72;94848.25;6175245;23;20476;-55
2022/09/10 01:40:50;;;;;;;11.00;7.60;;;21.90;99.90;;;22.45;65.77;94850.91;6175838;23;20389;-56
2022/09/10 01:43:18;;;;;;;11.30;7.60;;;21.90;99.90;;;22.44;65.31;94846.59;6176024;23;20460;-56
2022/09/10 01:45:54;;;;;;;11.60;8.30;;;21.90;99.90;;;22.46;65.37;94860.59;6175674;23;20513;-55
2022/09/10 01:48:54;;;;;;;10.60;7.53;;;21.90;99.90;;;22.47;65.75;94856.06;6174978;23;20772;-57
2022/09/10 01:51:27;;;;;;;8.03;7.30;;;21.90;99.90;;;22.47;65.38;94864.09;6175487;23;20429;-55
2022/09/10 01:54:16;;;;;;;14.30;8.90;;;21.90;99.90;;;22.44;65.65;94868.03;6176089;23;20421;-55
2022/09/10 01:56:48;;;;;;;12.83;8.17;;;21.90;99.90;;;22.43;65.35;94877.09;6176449;23;20389;-54
2022/09/10 01:59:23;;;;;;;14.20;8.40;;;21.90;99.90;;;22.43;65.38;94871.72;6176160;23;20413;-53
2022/09/10 02:01:52;;;;;;;13.37;7.47;;;21.90;99.90;;;22.43;65.28;94881.63;6176097;23;20401;-56
2022/09/10 02:04:19;;;;;;;12.20;7.00;;;21.90;99.90;;;22.42;65.47;94877.31;6176437;23;20818;-55
2022/09/10 02:06:47;;;;;;;17.13;7.00;;;21.90;99.90;;;22.43;65.63;94892.38;6176232;23;20835;-56
2022/09/10 02:09:15;;;;;;;9.60;7.00;;;21.90;99.90;;;22.43;65.23;94887.81;6175798;23;20483;-56
2022/09/10 02:11:47;;;;;;;12.40;7.60;;;21.90;99.90;;;22.42;65.12;94880.81;6176115;23;20417;-56
2022/09/10 02:14:15;;;;;;;19.37;8.00;;;21.90;99.90;;;22.42;65.75;94872.78;6175882;23;20460;-55
2022/09/10 02:16:46;;;;;;;14.60;7.93;;;21.90;99.90;;;22.42;65.46;94879.97;6176040;23;20410;-55
2022/09/10 02:19:14;;;;;;;7.70;7.00;;;21.90;99.90;;;22.41;65.66;94870.31;6175857;23;20516;-55
2022/09/10 02:21:41;;;;;;;15.37;8.60;;;21.90;99.90;;;22.41;65.15;94881.03;6175284;23;20460;-55
2022/09/10 02:24:10;;;;;;;12.60;7.97;;;21.90;99.90;;;22.39;65.66;94881.25;6175717;23;21033;-55
2022/09/10 02:26:40;;;;;;;10.60;8.60;;;21.90;99.90;;;22.38;65.51;94876.91;6175001;23;20994;-55
2022/09/10 02:29:07;;;;;;;15.70;8.13;;;21.90;99.90;;;22.37;65.99;94875.28;6174980;23;20433;-54
2022/09/10 02:31:34;;;;;;;16.00;8.60;;;21.90;99.90;;;22.36;65.60;94873.66;6175634;23;20476;-54
2022/09/10 02:34:03;;;;;;;11.73;8.50;;;21.90;99.90;;;22.33;65.73;94872.19;6174810;23;20456;-55
2022/09/10 02:36:30;;;;;;;15.00;8.97;;;21.90;99.90;;;22.30;65.43;94880.66;6177101;23;20402;-56
2022/09/10 02:38:57;;;;;;;13.60;8.37;;;21.80;99.90;;;22.29;66.20;94875.47;6175527;23;20753;-56
2022/09/10 02:41:25;;;;;;;17.13;8.27;;;21.80;99.90;;;22.28;66.12;94879.22;6177230;23;20705;-56
2022/09/10 02:43:52;;;;;;;12.93;8.40;;;21.80;99.90;;;22.29;66.10;94880.84;6177673;23;20918;-54
2022/09/10 02:46:19;;;;;;;19.63;7.97;;;21.80;99.90;;;22.26;65.58;94881.28;6178300;23;20783;-55
2022/09/10 02:48:46;;;;;;;11.50;7.80;;;21.80;99.90;;;22.26;66.06;94870.56;6178171;23;20484;-54
2022/09/10 02:51:15;;;;;;;10.83;6.80;;;21.80;99.90;;;22.25;66.44;94871.59;6177083;23;20401;-57
2022/09/10 02:53:42;;;;;;;17.57;7.80;;;21.80;99.90;;;22.23;66.14;94876.34;6177019;23;20445;-55
2022/09/10 02:56:09;;;;;;;12.03;8.27;;;21.70;99.90;;;22.23;65.88;94885.22;6176725;23;20406;-55
2022/09/10 02:58:36;;;;;;;12.40;7.87;;;21.80;99.90;;;22.22;66.14;94888.91;6176533;23;20495;-53
2022/09/10 03:01:07;;;;;;;11.60;8.40;;;21.80;99.90;;;22.22;66.43;94886.25;6175950;23;20437;-56
2022/09/10 03:03:35;;;;;;;13.17;7.97;;;21.70;99.90;;;22.22;65.92;94883.56;6176851;23;20429;-55
2022/09/10 03:06:02;;;;;;;10.27;8.33;;;21.80;99.90;;;22.20;65.82;94881.09;6176820;23;20465;-57
2022/09/10 03:08:31;;;;;;;13.10;7.50;;;21.70;99.90;;;22.22;66.11;94877.38;6176417;23;20425;-56
2022/09/10 03:10:58;;;;;;;15.00;8.17;;;21.70;99.90;;;22.15;65.91;94878.22;6176762;23;20749;-55
2022/09/10 03:13:26;;;;;;;13.60;8.43;;;21.70;99.90;;;22.18;66.49;94885.84;6176497;23;21095;-55
2022/09/10 03:15:54;;;;;;;16.00;7.40;;;21.70;99.90;;;22.17;65.83;94876.16;6176030;23;20925;-55
2022/09/10 03:18:22;;;;;;;15.83;8.17;;;21.70;99.90;;;22.16;66.13;94887.91;6176360;23;20484;-54
2022/09/10 03:20:49;;;;;;;16.90;7.97;;;21.70;99.90;;;22.16;65.96;94879.06;6176771;23;20493;-57
2022/09/10 03:23:17;;;;;;;14.00;8.30;;;21.70;99.90;;;22.17;65.79;94873.47;6176878;23;20471;-56
2022/09/10 03:25:45;;;;;;;16.47;8.50;;;21.70;99.90;;;22.16;65.86;94871.81;6177744;23;20798;-55
2022/09/10 03:28:12;;;;;;;13.80;8.03;;;21.70;99.90;;;22.14;66.01;94863.19;6176045;23;20437;-58
2022/09/10 03:30:41;;;;;;;10.60;8.77;;;21.70;99.90;;;22.15;65.76;94861.31;6176964;23;20398;-56
2022/09/10 03:33:10;;;;;;;8.73;7.73;;;21.70;99.90;;;22.13;65.76;94858.84;6176935;23;20455;-55
2022/09/10 03:35:38;;;;;;;11.53;8.07;;;21.70;99.90;;;22.12;65.78;94857.22;6177122;23;20414;-56
2022/09/10 03:38:05;;;;;;;12.13;7.60;;;21.70;99.90;;;22.12;65.52;94854.53;6176984;23;20408;-57
2022/09/10 03:40:33;;;;;;;13.70;8.60;;;21.60;99.90;;;22.09;65.60;94854.97;6178132;23;20424;-55
2022/09/10 03:43:01;;;;;;;17.80;8.50;;;21.60;99.90;;;22.07;65.61;94856.22;6176560;23;20974;-55
2022/09/10 03:45:29;;;;;;;15.03;8.57;;;21.60;99.90;;;22.05;65.96;94852.94;6176751;23;21050;-56
2022/09/10 03:47:56;;;;;;;25.23;8.20;;;21.60;99.90;;;22.03;65.79;94856.63;6176892;23;20448;-56
2022/09/10 03:50:24;;;;;;;9.40;8.40;;;21.60;99.90;;;22.02;65.46;94856.84;6176307;23;20426;-57
2022/09/10 03:52:51;;;;;;;12.20;7.80;;;21.60;99.90;;;22.01;65.95;94865.91;6176452;23;20516;-57
2022/09/10 03:55:18;;;;;;;21.10;8.53;;;21.50;99.90;;;21.98;65.32;94852.94;6176359;23;20456;-58
2022/09/10 03:57:45;;;;;;;11.20;8.37;;;21.50;99.90;;;21.98;65.87;94852.94;6177070;23;20513;-57
2022/09/10 04:00:14;;;;;;;11.63;7.90;;;21.50;99.90;;;21.98;65.81;94851.09;6175337;23;20425;-54
2022/09/10 04:02:42;;;;;;;10.60;9.00;;;21.50;99.90;;;22.00;66.15;94850.88;6178911;23;20903;-55
2022/09/10 04:05:10;;;;;;;18.60;8.20;;;21.50;99.90;;;21.98;65.89;94839.53;6178555;23;21021;-57
2022/09/10 04:07:37;;;;;;;13.60;9.10;;;21.50;99.90;;;21.97;66.00;94840.59;6176760;23;20428;-57
2022/09/10 04:10:05;;;;;;;10.13;8.30;;;21.50;99.90;;;21.95;66.17;94856.88;6174938;23;21109;-56
2022/09/10 04:12:33;;;;;;;14.40;8.97;;;21.50;99.90;;;21.96;65.78;94855.00;6175476;23;20448;-54
2022/09/10 04:15:03;;;;;;;12.87;8.80;;;21.50;99.90;;;21.96;66.29;94855.81;6175453;23;20425;-56
2022/09/10 04:17:31;;;;;;;15.40;8.43;;;21.50;99.90;;;21.96;65.72;94863.84;6176075;23;20408;-55
2022/09/10 04:19:59;;;;;;;10.13;8.00;;;21.50;99.90;;;21.95;66.26;94874.78;6175520;23;20483;-56
2022/09/10 04:22:27;;;;;;;16.30;8.30;;;21.50;99.90;;;21.96;66.22;94887.97;6175980;23;20460;-56
2022/09/10 04:24:54;;;;;;;10.87;7.60;;;21.50;99.90;;;21.98;66.15;94890.44;6176350;23;20469;-56
2022/09/10 04:27:22;;;;;;;13.47;7.70;;;21.50;99.90;;;21.99;66.36;94900.13;6175866;23;20755;-54
2022/09/10 04:29:49;;;;;;;33.93;9.00;;;21.50;99.90;;;21.99;66.57;94897.44;6176055;23;20947;-54
2022/09/10 04:32:16;;;;;;;10.70;8.20;;;21.50;99.90;;;22.01;66.02;94895.38;6175655;23;20418;-56
2022/09/10 04:34:45;;;;;;;18.17;8.90;;;21.50;99.90;;;22.02;66.17;94897.84;6175362;23;20511;-55
2022/09/10 04:37:12;;;;;;;13.33;9.57;;;21.60;99.90;;;22.04;66.44;94889.59;6176518;23;20994;-55
2022/09/10 04:39:42;;;;;;;13.00;9.70;;;21.60;99.90;;;22.05;66.12;94880.53;6176300;23;20425;-56
2022/09/10 04:42:09;;;;;;;11.20;7.67;;;21.60;99.90;;;22.05;66.02;94875.16;6176211;23;20923;-54
2022/09/10 04:44:36;;;;;;;16.77;8.50;;;21.60;99.90;;;22.06;66.30;94868.78;6175264;23;20511;-53
2022/09/10 04:47:04;;;;;;;13.00;8.73;;;21.60;99.90;;;22.06;66.56;94860.75;6177036;23;20401;-55
2022/09/10 04:49:31;;;;;;;16.50;9.30;;;21.60;99.90;;;22.07;66.40;94856.22;6176974;23;20918;-55
2022/09/10 04:51:59;;;;;;;19.87;11.30;;;21.60;99.90;;;22.08;66.27;94850.63;6177056;23;20456;-54
2022/09/10 04:54:27;;;;;;;13.67;8.23;;;21.60;99.90;;;22.07;66.04;94840.94;6176467;23;20966;-55
2022/09/10 04:56:54;;;;;;;10.80;8.13;;;21.60;99.90;;;22.08;66.63;94839.13;6176308;23;20623;-56
2022/09/10 04:59:21;;;;;;;17.47;8.23;;;21.60;99.90;;;22.07;66.43;94851.66;6176225;23;20876;-56
2022/09/10 05:01:50;;;;;;;10.77;7.97;;;21.60;99.90;;;22.10;66.36;94856.59;6176777;23;20409;-56
2022/09/10 05:04:17;;;;;;;14.63;9.60;;;21.60;99.90;;;22.11;66.13;94858.25;6176375;23;20426;-53
2022/09/10 05:06:46;;;;;;;13.20;9.87;;;21.60;99.90;;;22.12;66.77;94859.91;6176895;23;20736;-55
2022/09/10 05:09:14;;;;;;;11.30;7.87;;;21.60;99.90;;;22.12;66.45;94867.94;6176116;23;20491;-56
2022/09/10 05:11:42;;;;;;;14.37;9.30;;;21.60;99.90;;;22.15;66.73;94878.22;6176400;23;20969;-56
2022/09/10 05:14:09;;;;;;;10.57;8.23;;;21.70;99.90;;;22.19;66.92;94881.31;6176557;23;20477;-57
2022/09/10 05:16:37;;;;;;;11.83;9.83;;;21.70;99.90;;;22.20;66.49;94888.31;6176384;23;20735;-55
2022/09/10 05:19:05;;;;;;;24.60;9.47;;;21.70;99.90;;;22.21;66.47;94879.22;6175687;23;20429;-55
2022/09/10 05:21:32;;;;;;;12.30;9.37;;;21.70;99.90;;;22.24;66.51;94888.72;6175014;23;20402;-56
2022/09/10 05:23:59;;;;;;;12.60;8.73;;;21.70;99.90;;;22.25;66.93;94885.81;6177085;23;20480;-54
2022/09/10 05:26:28;;;;;;;15.33;9.53;;;21.80;99.90;;;22.25;66.43;94885.00;6175554;23;20405;-57
2022/09/10 05:28:56;;;;;;;14.90;9.00;;;21.80;99.90;;;22.26;66.80;94878.59;6175521;23;20437;-57
2022/09/10 05:31:23;;;;;;;11.00;8.67;;;21.80;99.90;;;22.29;67.20;94883.53;6175236;23;20405;-56
2022/09/10 05:33:50;;;;;;;8.90;7.80;;;21.80;99.90;;;22.30;67.25;94883.34;6174539;23;20755;-56
2022/09/10 05:36:17;;;;;;;15.07;8.80;;;21.80;99.90;;;22.30;66.44;94887.84;6174469;23;20406;-54
2022/09/10 05:38:45;;;;;;;16.20;8.90;;;21.80;99.90;;;22.26;66.11;94874.06;6175100;23;20524;-55
2022/09/10 05:41:12;;;;;;;13.70;9.30;;;21.80;99.90;;;22.24;66.45;94878.00;6175766;23;20408;-54
2022/09/10 05:43:40;;;;;;;8.60;7.80;;;21.80;99.90;;;22.25;66.76;94877.78;6173691;23;20426;-57
2022/09/10 05:46:08;;;;;;;15.10;9.10;;;21.80;99.90;;;22.28;66.95;94873.84;6174933;23;20401;-54
2022/09/10 05:48:36;;;;;;;18.20;9.17;;;21.80;99.90;;;22.34;66.82;94876.53;6174880;23;20504;-55
2022/09/10 05:51:03;;;;;;;21.23;9.27;;;21.90;99.90;;;22.40;66.65;94872.16;6175111;23;20409;-56
2022/09/10 05:53:31;;;;;;;17.97;9.47;;;21.90;99.90;;;22.46;67.22;94882.03;6175446;23;20844;-56
2022/09/10 05:55:58;;;;;;;12.37;8.70;;;22.00;99.90;;;22.60;66.82;94888.16;6174651;23;20416;-56
2022/09/10 05:58:26;;;;;;;10.03;8.20;;;22.10;99.90;;;22.77;65.99;94882.28;6175264;23;20432;-56
2022/09/10 06:00:55;;;;;;;17.17;8.50;;;22.20;99.90;;;22.97;65.39;94888.34;6175536;23;20791;-56
2022/09/10 06:03:22;;;;;;;17.00;9.30;;;22.40;99.90;;;23.14;65.30;94883.31;6175574;23;20406;-56
2022/09/10 06:05:50;;;;;;;14.73;10.00;;;22.60;99.90;;;23.32;65.07;94879.06;6175506;23;20405;-56
2022/09/10 06:08:17;;;;;;;18.70;9.30;;;22.70;99.90;;;23.48;64.63;94883.84;6175786;23;20409;-54
2022/09/10 06:10:55;;;;;;;20.83;9.33;;;22.90;99.90;;;23.66;64.27;94875.03;6177538;23;20460;-55
2022/09/10 06:13:22;;;;;;;23.43;9.10;;;23.10;99.90;;;23.79;63.73;94882.13;6177916;23;21035;-56
2022/09/10 06:15:49;;;;;;;19.60;9.67;;;23.20;99.90;;;23.88;63.75;94878.13;6177352;23;20748;-56
2022/09/10 06:18:18;;;;;;;14.10;9.03;;;23.30;99.90;;;23.92;62.94;94873.97;6178279;23;20405;-56
2022/09/10 06:20:46;;;;;;;9.43;7.60;;;23.40;99.90;;;23.96;62.40;94880.53;6176211;23;21143;-56
2022/09/10 06:23:15;;;;;;;12.83;8.03;;;23.40;99.70;;;24.02;62.23;94883.38;6176560;23;20487;-56
2022/09/10 06:25:43;;;;;;;17.20;9.00;;;23.50;99.50;;;24.03;61.67;94888.53;6177482;23;20408;-54
2022/09/10 06:28:11;;;;;;;10.47;8.23;;;23.50;99.20;;;24.03;61.58;94879.63;6177284;23;20440;-57
2022/09/10 06:30:38;;;;;;;14.43;8.20;;;23.50;99.00;;;24.03;61.58;94874.25;6177282;23;20447;-56
2022/09/10 06:33:05;;;;;;;16.20;9.30;;;23.50;98.80;;;24.05;61.53;94872.19;6177343;23;20479;-54
2022/09/10 06:35:34;;;;;;;15.67;9.30;;;23.60;98.70;;;24.11;61.32;94882.03;6175621;23;20710;-59
2022/09/10 06:38:02;;;;;;;18.40;9.53;;;23.60;98.40;;;24.17;60.29;94886.53;6176296;23;20459;-56
2022/09/10 06:40:29;;;;;;;9.27;8.10;;;23.60;98.10;;;24.24;60.00;94887.25;6177051;23;20475;-58
2022/09/10 06:42:56;;;;;;;12.90;9.27;;;23.70;98.00;;;24.32;60.15;94884.28;6175756;23;20436;-57
2022/09/10 06:45:24;;;;;;;14.20;8.87;;;23.70;97.80;;;24.38;59.49;94887.91;6175616;23;20475;-54
2022/09/10 06:47:51;;;;;;;16.50;9.10;;;23.90;97.70;;;24.45;59.83;94885.16;6175428;23;20748;-56
2022/09/10 06:50:19;;;;;;;14.00;7.83;;;23.90;97.60;;;24.58;59.53;94886.88;6175126;23;20468;-59
2022/09/10 06:52:47;;;;;;;16.37;8.00;;;24.00;97.40;;;24.74;59.25;94875.50;6175690;23;20920;-53
2022/09/10 06:55:15;;;;;;;20.13;9.10;;;24.10;97.20;;;24.96;58.77;94878.47;6174578;23;20479;-56
2022/09/10 06:57:42;;;;;;;16.53;9.97;;;24.30;96.90;;;25.15;58.01;94867.66;6174264;23;20405;-58
2022/09/10 07:00:10;;;;;;;13.63;10.60;;;24.50;96.60;;;25.30;58.01;94868.06;6174453;23;20484;-59
2022/09/10 07:02:38;;;;;;;16.23;10.40;;;24.70;96.10;;;25.47;57.54;94872.75;6175571;23;20886;-56
2022/09/10 07:05:06;;;;;;;11.20;8.87;;;24.80;95.90;;;25.68;57.39;94874.06;6175971;23;21028;-54
2022/09/10 07:07:33;;;;;;;19.87;8.80;;;25.00;95.80;;;25.94;57.00;94867.34;6177187;23;20476;-57
2022/09/10 07:10:02;;;;;;;15.70;9.70;;;25.30;95.60;;;26.29;56.38;94869.22;6176934;23;20487;-53
2022/09/10 07:12:29;;;;;;;13.00;7.80;;;25.60;95.30;;;26.63;55.89;94864.75;6176320;23;20440;-55
2022/09/10 07:14:56;;;;;;;10.30;9.10;;;25.90;95.00;;;26.89;55.18;94873.34;6176155;23;20449;-56
2022/09/10 07:17:24;;;;;;;12.53;9.03;;;26.20;94.20;;;27.21;54.43;94870.13;6176335;23;20432;-58
2022/09/10 07:19:52;;;;;;;12.13;9.53;;;26.50;93.80;;;27.51;53.70;94869.03;6176488;23;20452;-57
2022/09/10 07:22:19;;;;;;;17.97;9.73;;;26.80;93.30;;;27.84;53.46;94870.88;6174682;23;20734;-58
2022/09/10 07:24:49;;;;;;;17.40;9.80;;;27.10;92.80;;;28.15;52.70;94868.63;6176451;23;20436;-55
2022/09/10 07:27:17;;;;;;;9.67;8.73;;;27.40;92.20;;;28.54;53.06;94868.56;6177363;23;20409;-56
2022/09/10 07:29:45;;;;;;;16.80;8.93;;;27.80;92.00;;;28.99;52.11;94880.19;6175719;23;20424;-56
2022/09/10 07:32:12;;;;;;;17.80;8.10;;;28.20;91.50;;;29.31;50.86;94884.84;6176331;23;20744;-55
2022/09/10 07:34:39;;;;;;;14.50;8.67;;;28.50;90.70;;;29.67;50.19;94872.41;6176201;23;20977;-55
2022/09/10 07:37:07;;;;;;;7.80;7.00;;;28.90;89.60;;;30.15;50.18;94875.19;6177042;23;20910;-57
2022/09/10 07:39:34;;;;;;;11.47;8.30;;;29.30;88.20;;;30.70;49.25;94867.56;6177097;23;20421;-55
2022/09/10 07:42:01;;;;;;;17.40;9.60;;;29.90;87.00;;;31.31;48.14;94879.69;6175090;23;20436;-55
2022/09/10 07:44:30;;;;;;;11.17;7.90;;;30.50;85.10;;;31.90;47.40;94881.06;6177064;23;20428;-56
2022/09/10 07:46:58;;;;;;;16.50;7.93;;;31.10;82.90;;;32.46;46.32;94888.28;6175222;23;20526;-57
2022/09/10 07:49:26;;;;;;;9.57;7.87;;;31.70;79.90;;;32.90;44.88;94891.41;6175443;23;20194;-55
2022/09/10 07:51:53;;;;;;;16.10;8.00;;;32.20;75.90;;;33.12;44.46;94888.25;6175922;23;20165;-56
2022/09/10 07:54:21;;;;;;;15.77;8.85;;;32.60;72.80;;;33.39;43.86;94887.84;6176165;23;20745;-57
2022/09/10 07:56:48;;;;;;;13.77;9.35;;;32.80;71.50;;;33.64;43.37;94888.75;6176558;23;20225;-57
2022/09/10 07:59:16;;;;;;;17.67;8.30;;;33.10;69.50;;;33.86;42.49;94877.41;6176793;23;20189;-56
2022/09/10 08:01:46;;;;;;;8.07;7.28;;;33.40;66.80;;;33.99;42.12;94881.34;6175279;23;20173;-54
2022/09/10 08:04:13;;;;;;;15.48;8.30;;;33.60;65.30;;;34.22;41.18;94877.88;6174597;23;20244;-55
2022/09/10 08:06:41;;;;;;;10.30;7.45;;;33.70;64.20;;;34.47;41.03;94886.88;6175286;23;20706;-57
2022/09/10 08:09:08;;;;;;;74.20;50.95;;;34.00;63.60;;;34.53;40.87;94885.72;6175890;23;20193;-57
2022/09/10 08:11:35;;;;;;;17.00;9.93;;;34.00;62.30;;;34.45;41.19;94891.81;6168937;23;20245;-56
2022/09/10 08:14:02;;;;;;;16.73;8.68;;;34.00;61.60;;;34.51;40.28;94885.19;6168664;23;20262;-57
2022/09/10 08:16:30;;;;;;;24.55;13.57;;;34.10;60.90;;;34.81;40.75;94878.59;6170824;23;20198;-55
2022/09/10 08:18:59;;;;;;;19.75;12.10;;;34.40;60.60;;;35.25;39.48;94881.25;6172617;23;20193;-55
2022/09/10 08:21:26;;;;;;;17.70;10.82;;;34.80;59.40;;;35.66;38.70;94867.75;6170084;23;20224;-57
2022/09/10 08:23:54;;;;;;;29.90;12.32;;;35.30;58.30;;;36.00;37.23;94861.19;6173877;23;20200;-57
2022/09/10 08:26:22;;;;;;;19.15;8.65;;;35.70;55.10;;;36.31;38.02;94857.09;6174488;23;20197;-56
2022/09/10 08:28:49;;;;;;;15.98;8.88;;;36.00;55.90;;;36.54;37.83;94858.00;6172109;23;20205;-57
2022/09/10 08:31:17;;;;;;;15.88;8.02;;;36.20;55.20;;;36.51;37.41;94866.84;6169823;23;20260;-56
2022/09/10 08:33:49;;;;;;;12.63;7.88;;;36.20;54.20;;;36.19;36.80;94865.78;6170829;23;20260;-55
2022/09/10 08:36:18;;;;;;;8.18;7.45;;;36.00;54.00;;;35.72;37.16;94863.03;6173768;23;20169;-55
2022/09/10 08:38:45;;;;;;;17.20;7.72;;;35.60;54.30;;;35.26;38.66;94863.75;6173378;23;20189;-57
2022/09/10 08:41:22;;;;;;;13.18;7.60;;;35.10;54.50;;;35.01;38.04;94863.81;6175625;23;20173;-56
2022/09/10 08:43:54;;;;;;;14.20;8.15;;;34.80;55.10;;;34.96;38.72;94850.22;6173235;23;20189;-56
2022/09/10 08:46:25;;;;;;;18.15;8.05;;;34.60;55.50;;;35.01;38.73;94858.34;6173739;23;20217;-56
2022/09/10 08:49:01;;;;;;;10.85;7.82;;;34.50;55.50;;;35.08;38.68;94865.38;6174954;23;20540;-55
2022/09/10 08:51:30;;;;;;;17.35;8.80;;;34.50;55.50;;;34.90;38.92;94859.59;6174254;23;20193;-56
2022/09/10 08:53:59;;;;;;;14.70;7.22;;;34.40;55.10;;;34.73;38.74;94851.06;6172748;23;20190;-57
2022/09/10 08:56:26;;;;;;;18.95;8.00;;;34.20;55.50;;;34.43;38.65;94844.88;6175337;23;21093;-55
2022/09/10 08:58:57;;;;;;;16.77;7.75;;;34.00;55.50;;;34.01;39.11;94851.88;6177455;23;20288;-55
2022/09/10 09:01:30;;;;;;;15.88;8.07;;;33.60;55.90;;;33.64;39.25;94847.84;6173972;23;20174;-55
2022/09/10 09:03:57;;;;;;;12.18;7.75;;;33.20;56.20;;;33.28;40.42;94859.00;6176709;23;20232;-56
2022/09/10 09:06:30;;;;;;;12.38;7.93;;;32.80;57.00;;;32.98;40.32;94855.38;6176649;23;20225;-56
2022/09/10 09:08:59;;;;;;;18.02;8.32;;;32.50;57.90;;;32.69;41.36;94848.72;6176464;23;20256;-54
2022/09/10 09:11:33;;;;;;;13.55;8.63;;;32.20;58.20;;;32.41;41.63;94846.63;6177240;23;20181;-57
2022/09/10 09:14:26;;;;;;;12.90;7.75;;;31.90;58.60;;;32.00;41.59;94834.75;6176975;23;20189;-54
2022/09/10 09:17:32;;;;;;;14.00;9.80;;;31.60;59.00;;;31.62;42.39;94833.47;6175688;23;20175;-55
2022/09/10 09:20:08;;;;;;;15.95;9.05;;;31.10;59.60;;;31.36;42.78;94824.50;6131731;23;20248;-57
2022/09/10 09:22:42;;;;;;;14.88;9.52;;;30.80;60.40;;;31.08;43.12;94813.88;6176729;23;20572;-55
2022/09/10 09:25:19;;;;;;;8.68;7.78;;;30.60;61.00;;;31.02;43.92;94809.53;6177025;23;20272;-55
2022/09/10 09:27:46;;;;;;;12.65;9.40;;;30.40;62.00;;;31.36;44.21;94800.84;6177075;23;20752;-56
2022/09/10 09:30:17;;;;;;;19.23;8.23;;;30.60;62.80;;;31.80;43.48;94805.69;6177093;23;20193;-55
2022/09/10 09:32:46;;;;;;;12.60;8.95;;;31.00;63.10;;;32.20;42.94;94794.19;6175990;23;20687;-54
2022/09/10 09:35:22;;;;;;;21.70;9.43;;;31.30;62.40;;;32.62;42.35;94796.44;6176606;23;20675;-57
2022/09/10 09:37:52;;;;;;;20.10;8.40;;;31.70;61.90;;;33.00;41.58;94785.03;6176997;23;20165;-56
2022/09/10 09:40:27;;;;;;;11.88;8.25;;;32.10;60.20;;;33.31;40.70;94776.66;6176637;23;20260;-55
2022/09/10 09:42:56;;;;;;;20.35;9.88;;;32.40;59.00;;;33.59;41.29;94769.59;6177348;23;20161;-57
2022/09/10 09:45:26;;;;;;;18.80;9.25;;;32.70;59.40;;;33.89;40.79;94767.66;6180557;23;20276;-57
2022/09/10 09:47:54;;;;;;;10.35;7.68;;;33.00;59.00;;;34.09;40.11;94766.63;6180383;23;20165;-55
2022/09/10 09:50:21;;;;;;;11.52;7.53;;;33.20;58.40;;;34.32;40.17;94764.16;6179927;23;20189;-55
2022/09/10 09:52:51;;;;;;;29.75;12.15;;;33.50;58.20;;;34.52;40.02;94761.19;6179950;23;20173;-56
2022/09/10 09:55:27;;;;;;;10.70;7.78;;;33.70;57.70;;;34.79;38.21;94762.47;6180061;23;20201;-59
2022/09/10 09:58:32;;;;;;;12.30;6.47;;;33.90;56.90;;;34.88;38.73;94755.22;6180474;23;20163;-57
2022/09/10 10:01:21;;;;;;;21.58;7.07;;;34.10;55.80;;;34.80;38.33;94753.97;6181103;23;20173;-57
2022/09/10 10:03:53;;;;;;;25.27;7.32;;;34.10;54.80;;;34.60;37.65;94741.38;6180647;23;20189;-56
2022/09/10 10:06:23;;;;;;;15.50;5.85;;;33.90;55.00;;;34.24;38.38;94739.16;6180761;23;20228;-57
2022/09/10 10:09:00;;;;;;;13.00;6.18;;;33.60;54.80;;;34.02;38.00;94727.94;6179904;23;20189;-56
2022/09/10 10:11:51;;;;;;;20.98;6.25;;;33.40;55.00;;;33.58;38.11;94718.88;6180455;23;20169;-56
2022/09/10 10:14:37;;;;;;;17.30;6.10;;;33.00;54.50;;;33.10;38.96;94718.75;6179866;23;20190;-55
2022/09/10 10:17:22;;;;;;;10.98;6.32;;;32.60;55.30;;;33.01;39.41;94713.91;6180741;23;20204;-54
2022/09/10 10:19:58;;;;;;;12.85;6.35;;;32.40;56.20;;;33.19;39.51;94711.63;6180118;23;20193;-57
2022/09/10 10:22:26;;;;;;;15.63;6.68;;;32.50;56.70;;;33.39;39.34;94707.88;6180497;23;20551;-56
2022/09/10 10:24:55;;;;;;;14.48;7.25;;;32.50;56.50;;;33.40;39.40;94698.59;6180566;23;20189;-56